Go Pro

Movado Group (MOV) Institutional Ownership

Movado Group logo
$33.91 +0.28 (+0.83%)
As of 11:04 AM Eastern
This is a fair market value price provided by Massive. Learn more.

Institutional Ownership Changes (13F Filings) for Movado Group (NYSE:MOV)

Current
Institutional Ownership
Percentage
72.08%
Number of
Institutional Buyers
(last 12 months)
71
Total
Institutional Inflows
(last 12 months)
$103.76M
Number of
Institutional Sellers
(last 12 months)
41
Total
Institutional Outflows
(last 12 months)
$47.29M
Get MOV Insider Trade Alerts

Want to know when executives and insiders are buying or selling Movado Group stock? Sign up for InsiderTrades.com's daily newsletter to get the latest insider transactions delivered to your inbox daily.

SMS is currently available in Australia, Belgium, Canada, France, Germany, Ireland, Italy, New Zealand, the Netherlands, Singapore, South Africa, Spain, Switzerland, the United Kingdom, and the United States. By entering your phone number and clicking the sign-up button, you agree to receive periodic text messages from MarketBeat at the phone number you submitted, including texts that may be sent using an automatic telephone dialing system. Message and data rates may apply. Message frequency will vary. Messages will consist of stock alerts, news stories, and partner advertisements/offers. Consent is not a condition of the purchase of any goods or services. Text HELP for help/customer support. Unsubscribe at any time by replying "STOP" to any text message that you receive from MarketBeat or by visiting our mailing preferences page. Read our full terms of service and privacy policy.
Skip Chart & View Institutional Buying and Selling Data

MOV Institutional Buying and Selling by Quarter

Movado Group Major Shareholders & Ownership History

Reporting DateMajor Shareholder NameShares HeldMarket Value% of PortfolioQuarterly Change in SharesOwnership in CompanyDetails
8/24/2026 California State Teachers Retirement System8,294$326K0.0%+906.6%0.038%
8/23/2026 VELA Investment Management LLC111,318$4.38M0.9%-37.9%0.504%
8/20/2026 BTG Pactual Asset Management US LLC6,718$264K0.0%N/A0.030%
8/20/2026 IMC Chicago LLC5,857$230K0.0%-52.8%0.027%
8/19/2026 Hsbc Holdings PLC16,759$657K0.0%+87.4%0.076%
8/18/2026 Empowered Funds LLC103,365$4.06M0.0%N/A0.468%
8/18/2026 Public Employees Retirement System of Ohio26,244$1.03M0.0%N/A0.119%
8/17/2026 Bank of America Corp DE31,698$1.25M0.0%N/A0.144%
8/15/2026 Odyssean LLC10,082$396K0.1%N/A0.046%
8/15/2026 Man Group plc38,635$1.52M0.0%N/A0.175%
8/15/2026 Lotus Technology Management LP5,648$222K0.3%N/A0.026%
8/14/2026 Hsbc Holdings PLC16,759$657K0.0%N/A0.076%
8/14/2026 Canada Pension Plan Investment Board7,300$287K0.0%N/A0.033%
8/14/2026 Legal & General Group Plc2,949$116K0.0%N/A0.013%
8/13/2026 Cibc World Market Inc.10,861$427K0.0%N/A0.049%
8/13/2026 Sanctuary Advisors LLC45,261$1.78M0.0%N/A0.205%
8/13/2026 Bank of Nova Scotia7,900$311K0.0%N/A0.036%
8/12/2026 Quantbot Technologies LP10,708$421K0.0%N/A0.049%
8/12/2026 Ieq Capital LLC13,942$548K0.0%N/A0.063%
8/11/2026 Allworth Financial LP676$27K0.0%N/A0.003%
8/7/2026 BlackRock Inc.1,343,788$52.82M0.0%N/A6.086%
8/7/2026 Deutsche Bank AG15,650$615K0.0%N/A0.071%
8/6/2026 IMC Chicago LLC5,857$230K0.0%N/A0.027%
8/6/2026 Bank of New York Mellon Corp169,535$6.66M0.0%N/A0.768%
8/6/2026 State of Wyoming18,713$736K0.1%N/A0.085%
7/1/2026 Confluence Investment Management LLC34,155$1.34M0.0%-54.2%0.155%
5/18/2026 Royal Bank of Canada18,892$461K0.0%+64.7%0.086%
5/18/2026 Empowered Funds LLC97,544$2.38M0.0%-10.4%0.442%
5/16/2026 Quantinno Capital Management LP54,274$1.33M0.0%+24.9%0.246%
5/16/2026 Lazard Asset Management LLC124,643$3.04M0.0%+120.8%0.565%
5/14/2026 Renaissance Technologies LLC139,198$3.40M0.0%+125.6%0.630%
5/14/2026 Arrowstreet Capital Limited Partnership285,138$6.96M0.0%-35.6%1.292%
5/14/2026 Sei Investments Co.86,669$2.12M0.0%+248.8%0.393%
5/14/2026 State of Wyoming7,506$183K0.0%+37.9%0.034%
5/7/2026 Dimensional Fund Advisors LP852,616$20.82M0.0%-1.0%3.861%
5/5/2026 Bank of New York Mellon Corp165,320$4.04M0.0%+7.9%0.749%
5/5/2026 Sanctuary Advisors LLC36,564$893K0.0%-1.0%0.166%
5/1/2026 Fifth Third Bancorp1,614$39K0.0%+16,040.0%0.007%
4/30/2026 Hsbc Holdings PLC8,945$220K0.0%-19.3%0.041%
4/28/2026DGS Capital Management LLC8,977$219K0.0%N/A0.041%
Three companies about to leapfrog Nvidia [And transform the entire industry] (Ad)

AI data centers have a power problem nobody likes to talk about. A single rack of computers can now use more electricity than an entire office building. One new chip, which looks more like a piece of plywood than a processor, delivers similar performance on a fraction of the power. Tech investing veteran George Gilder says that efficiency gap could decide who wins the next stage of AI. Gilder has identified three companies positioned around this power breakthrough, calling them the Trillion Dollar Triangle.tc pixel

See the three companies behind this AI power breakthrough now
4/25/2026 Strs Ohio24,700$603K0.0%+671.9%0.112%
4/24/2026 Deprince Race & Zollo Inc.221,761$5.42M0.1%-14.2%1.004%
4/24/2026 MQS Management LLC9,934$243K0.2%N/A0.045%
4/23/2026 Inspire Investing LLC20,968$512K0.0%-7.3%0.095%
4/23/2026 North Star Investment Management Corp.131,025$3.20M0.2%+39.4%0.593%
4/20/2026 Ritholtz Wealth Management32,651$797K0.0%N/A0.148%
3/20/2026 Hsbc Holdings PLC11,089$229K0.0%-29.2%0.050%
2/19/2026 Invesco Ltd.37,133$766K0.0%+4.8%0.168%
2/18/2026 Mackenzie Financial Corp21,326$447K0.0%N/A0.096%
2/18/2026 Empowered Funds LLC108,923$2.25M0.0%-16.1%0.492%
2/18/2026 Numerai GP LLC30,590$631K0.1%-51.7%0.138%
2/18/2026 Occudo Quantitative Strategies LP12,197$252K0.0%-38.9%0.055%
2/18/2026 Millennium Management LLC64,119$1.32M0.0%-49.0%0.290%
2/18/2026 Man Group plc18,694$385K0.0%N/A0.084%
2/18/2026 Inspire Investing LLC22,624$467K0.0%-6.2%0.102%
2/18/2026 Bridgeway Capital Management LLC251,576$5.19M0.1%-14.3%1.136%
2/17/2026 AQR Capital Management LLC186,862$3.85M0.0%+94.1%0.844%
2/17/2026 Lazard Asset Management LLC56,442$1.16M0.0%+6.8%0.255%
2/17/2026 Trexquant Investment LP110,156$2.27M0.0%-6.9%0.498%
2/17/2026 Osaic Holdings Inc.10,127$209K0.0%-54.1%0.046%
2/17/2026 Russell Investments Group Ltd.266,229$5.49M0.0%+4.1%1.202%
2/17/2026 Kemnay Advisory Services Inc.7,699$159K0.0%N/A0.035%
2/17/2026 Royal Bank of Canada11,469$237K0.0%-85.5%0.052%
2/16/2026 Squarepoint Ops LLC14,653$302K0.0%-81.2%0.066%
2/16/2026 Barclays PLC59,057$1.22M0.0%-0.8%0.267%
2/13/2026 Arete Wealth Advisors LLC9,937$205K0.0%N/A0.045%
2/13/2026 Marshall Wace LLP39,649$818K0.0%N/A0.179%
2/13/2026 CANADA LIFE ASSURANCE Co1,756$36K0.0%+70.2%0.008%
2/13/2026 Segall Bryant & Hamill LLC37,076$765K0.0%+81.4%0.167%
2/13/2026 Jacobs Levy Equity Management Inc.252,804$5.21M0.0%-2.0%1.142%
2/13/2026 Charles Schwab Investment Management Inc.388,418$8.01M0.0%+19.1%1.754%
2/13/2026 State Street Corp360,136$7.43M0.0%+0.4%1.627%
2/13/2026 Dynamic Technology Lab Private Ltd25,067$517K0.1%N/A0.113%
2/13/2026 Wells Fargo & Company MN24,237$500K0.0%+41.4%0.109%
2/12/2026 Renaissance Technologies LLC61,698$1.27M0.0%-9.0%0.279%
2/12/2026 Dimensional Fund Advisors LP861,123$17.76M0.0%-6.1%3.890%
2/11/2026 Empowered Funds LLC108,923$2.25M0.0%-16.1%0.492%
2/11/2026 Brandes Investment Partners LP704,036$14.52M0.1%+5.6%3.180%
2/11/2026 LPL Financial LLC15,350$317K0.0%+21.9%0.069%
2/11/2026 State of Wyoming5,443$112K0.0%+23.5%0.025%
2/10/2026 Goldman Sachs Group Inc.888,244$18.32M0.0%+3.4%4.012%
2/9/2026 Geode Capital Management LLC370,673$7.65M0.0%-1.7%1.674%
2/9/2026 Royce & Associates LP1,052,461$21.70M0.2%-15.0%4.754%
2/9/2026 Fisher Asset Management LLC53,695$1.11M0.0%-9.0%0.243%
2/6/2026 PNC Financial Services Group Inc.1,598$33K0.0%+39.1%0.007%
2/5/2026 Teton Advisors LLC57,004$1.18M0.8%-8.2%0.257%
2/3/2026 Denali Advisors LLC46,566$960K0.1%-39.1%0.210%
2/2/2026 VELA Investment Management LLC185,006$3.82M0.9%-6.7%0.836%
2/2/2026 Strs Ohio3,200$66K0.0%N/A0.014%
1/30/2026 Laurel Wealth Advisors LLC2,039$42K0.0%N/A0.009%
MILLIONAIRE MASTERCLASS INVITE: Altucher (Ad)

James Altucher says Elon Musk is preparing an unprecedented project set to surface on September 25. Altucher is hosting a free masterclass revealing what he says is locked inside a sealed briefcase detailing Musk's plans. Attendees who join early can also access a $1,000 bonus offer included with the presentation.tc pixel

Watch James Altucher's free masterclass before September 25
1/29/2026 Sanctuary Advisors LLC36,943$762K0.0%-21.5%0.167%
1/23/2026 Deprince Race & Zollo Inc.258,478$5.33M0.1%+27.6%1.167%
1/16/2026 Linden Thomas Advisory Services LLC46,065$950K0.1%-2.4%0.208%
1/5/2026 Confluence Investment Management LLC105,378$2.17M0.0%-25.4%0.476%
1/1/2026 JPMorgan Chase & Co.79,622$1.51M0.0%-50.6%0.360%
11/17/2025 Jacobs Levy Equity Management Inc.257,920$4.89M0.0%-1.7%1.165%
11/17/2025 Qube Research & Technologies Ltd113,301$2.15M0.0%-40.7%0.512%
11/17/2025 Numerai GP LLC63,293$1.20M0.2%-67.8%0.286%
11/17/2025 Millennium Management LLC125,832$2.39M0.0%+3.2%0.568%
11/17/2025 MIRAE ASSET GLOBAL ETFS HOLDINGS Ltd.7,158$136K0.0%-14.1%0.032%


MOV Institutional Ownership - Frequently Asked Questions

During the previous two years, 156 institutional investors and hedge funds held shares of Movado Group. The most heavily invested institutionals were BlackRock Inc. ($52.82M), Royce & Associates LP ($21.70M), Dimensional Fund Advisors LP ($20.82M), Vanguard Group Inc. ($19.52M), Goldman Sachs Group Inc. ($18.32M), Brandes Investment Partners LP ($14.52M), and Ameriprise Financial Inc. ($11.63M).Learn more on Movado Group's institutional investors.

72.08% of Movado Group's stock is owned by institutional investors. Learn more on MOV's institutional investor holdings.

Of the 136 institutional investors that purchased Movado Group's stock in the last 24 months, the following investors and hedge funds have bought the highest volume of shares: BlackRock Inc. ($1.34M), Goldman Sachs Group Inc. ($485.86K), Brandes Investment Partners LP ($400.88K), Arrowstreet Capital Limited Partnership ($320.10K), Jane Street Group LLC ($247.52K), Russell Investments Group Ltd. ($244.00K), and Bank of New York Mellon Corp ($204.24K).

Institutional investors have bought a total of 3,290,315 shares in the last 24 months. This purchase volume represents approximately $103.76M in transactions.

Of the 41 institutional investors that sold Movado Group's stock in the last 24 months, the following investors and hedge funds have sold the highest volume of shares: Royce & Associates LP ($713.28K), Numerai GP LLC ($166.01K), JPMorgan Chase & Co. ($163.11K), Arrowstreet Capital Limited Partnership ($158.98K), LSV Asset Management ($154.40K), Dimensional Fund Advisors LP ($100.84K), and Confluence Investment Management LLC ($87.67K).

Institutional investors have sold a total of 2,246,960 shares in the last 24 months. This volume of shares sold represents approximately $47.29M in transactions.



Institutional ownership data for NYSE:MOV is compiled from quarterly 13F filings submitted to the U.S. Securities and Exchange Commission (SEC), with the most recent received on 8/24/2026. New 13F filings are added each quarter as they're published.
From Our Partners